createdAt,value
2018-11-26T00:00:20.470Z,18.07
2018-11-26T00:02:50.630Z,17.77
2018-11-26T00:05:19.654Z,19.17
2018-11-26T00:07:48.730Z,18.60
2018-11-26T00:11:34.598Z,19.43
2018-11-26T00:14:03.668Z,18.50
2018-11-26T00:16:33.558Z,19.37
2018-11-26T00:19:02.631Z,18.97
2018-11-26T00:21:31.811Z,19.17
2018-11-26T00:24:00.873Z,18.87
2018-11-26T00:26:29.935Z,19.83
2018-11-26T00:28:59.114Z,20.77
2018-11-26T00:31:28.150Z,19.17
2018-11-26T00:33:57.219Z,20.50
2018-11-26T00:36:26.261Z,19.23
2018-11-26T00:38:55.329Z,22.00
2018-11-26T00:41:24.447Z,21.83
2018-11-26T00:43:53.757Z,21.03
2018-11-26T00:46:22.956Z,22.20
2018-11-26T00:48:52.119Z,20.93
2018-11-26T00:51:21.300Z,21.67
2018-11-26T00:53:50.540Z,20.63
2018-11-26T00:56:19.737Z,20.73
2018-11-26T00:58:48.771Z,21.47
2018-11-26T01:01:17.920Z,22.70
2018-11-26T01:03:47.089Z,22.63
2018-11-26T01:06:16.137Z,20.83
2018-11-26T01:08:45.182Z,23.20
2018-11-26T01:11:14.551Z,23.17
2018-11-26T01:13:43.583Z,21.50
2018-11-26T01:16:12.659Z,20.90
2018-11-26T01:18:41.789Z,23.73
2018-11-26T01:21:10.872Z,26.30
2018-11-26T01:23:39.953Z,25.20
2018-11-26T01:26:09.162Z,25.93
2018-11-26T01:28:38.251Z,24.60
2018-11-26T01:31:07.323Z,24.50
2018-11-26T01:33:36.440Z,22.17
2018-11-26T01:36:05.846Z,24.60
2018-11-26T01:38:34.892Z,22.53
2018-11-26T01:41:04.047Z,22.93
2018-11-26T01:43:33.119Z,22.07
2018-11-26T01:46:02.216Z,21.00
2018-11-26T01:48:31.246Z,23.03
2018-11-26T01:51:00.372Z,23.10
2018-11-26T01:53:29.539Z,22.37
2018-11-26T01:55:58.606Z,23.97
2018-11-26T01:58:27.678Z,23.50
2018-11-26T02:00:56.745Z,22.63
2018-11-26T02:03:25.913Z,23.80
2018-11-26T02:05:55.035Z,24.20
2018-11-26T02:08:24.093Z,23.27
2018-11-26T02:10:53.395Z,24.90
2018-11-26T02:13:25.459Z,24.40
2018-11-26T02:15:54.498Z,26.63
2018-11-26T02:18:23.843Z,25.27
2018-11-26T02:20:52.933Z,25.37
2018-11-26T02:23:22.339Z,26.00
2018-11-26T02:25:51.804Z,27.30
2018-11-26T02:28:21.164Z,26.50
2018-11-26T02:30:50.202Z,25.63
2018-11-26T02:33:19.245Z,26.23
2018-11-26T02:35:48.365Z,29.07
2018-11-26T02:38:17.534Z,26.40
2018-11-26T02:40:46.598Z,25.70
2018-11-26T02:43:15.660Z,24.40
2018-11-26T02:45:44.959Z,24.43
2018-11-26T02:48:14.075Z,26.77
2018-11-26T02:50:43.095Z,25.20
2018-11-26T02:53:12.317Z,25.67
2018-11-26T02:55:41.500Z,22.73
2018-11-26T02:58:10.943Z,25.87
2018-11-26T03:00:40.751Z,24.00
2018-11-26T03:03:09.901Z,26.00
2018-11-26T03:05:38.973Z,24.93
2018-11-26T03:08:08.130Z,25.80
2018-11-26T03:10:37.173Z,26.30
2018-11-26T03:13:06.586Z,26.93
2018-11-26T03:15:35.901Z,26.10
2018-11-26T03:18:05.170Z,26.13
2018-11-26T03:20:34.226Z,24.33
2018-11-26T03:23:03.320Z,24.13
2018-11-26T03:25:32.372Z,26.07
2018-11-26T03:28:01.556Z,26.17
2018-11-26T03:30:30.669Z,26.00
2018-11-26T03:32:59.735Z,25.37
2018-11-26T03:35:28.792Z,24.30
2018-11-26T03:37:57.820Z,25.53
2018-11-26T03:40:27.153Z,26.97
2018-11-26T03:42:56.299Z,25.00
2018-11-26T03:45:25.519Z,26.13
2018-11-26T03:47:54.681Z,26.80
2018-11-26T03:50:23.701Z,25.70
2018-11-26T03:52:52.903Z,25.63
2018-11-26T03:55:22.111Z,26.27
2018-11-26T03:57:51.165Z,22.97
2018-11-26T04:00:20.246Z,25.10
2018-11-26T04:02:49.384Z,25.07
2018-11-26T04:05:18.548Z,26.93
2018-11-26T04:07:47.619Z,25.13
2018-11-26T04:10:17.288Z,24.70
2018-11-26T04:12:46.362Z,24.00
2018-11-26T04:15:16.018Z,26.87
2018-11-26T04:17:45.079Z,27.40
2018-11-26T04:20:14.148Z,27.73
2018-11-26T04:22:43.189Z,25.77
2018-11-26T04:25:12.377Z,26.10
2018-11-26T04:27:41.686Z,26.60
2018-11-26T04:30:12.323Z,27.07
2018-11-26T04:32:41.515Z,26.60
2018-11-26T04:35:11.205Z,25.37
2018-11-26T04:37:40.281Z,25.87
2018-11-26T04:40:10.186Z,26.63
2018-11-26T04:42:39.254Z,25.27
2018-11-26T04:45:10.383Z,23.60
2018-11-26T04:47:39.807Z,24.30
2018-11-26T04:50:12.900Z,25.77
2018-11-26T04:52:42.144Z,24.20
2018-11-26T04:55:12.499Z,24.80
2018-11-26T04:57:42.762Z,24.00
2018-11-26T05:00:12.272Z,23.30
2018-11-26T05:02:42.118Z,24.00
2018-11-26T05:05:13.124Z,24.77
2018-11-26T05:07:42.188Z,24.87
2018-11-26T05:10:12.452Z,24.23
2018-11-26T05:12:41.522Z,24.27
2018-11-26T05:15:12.046Z,22.53
2018-11-26T05:17:41.225Z,24.97
2018-11-26T05:20:11.942Z,20.37
2018-11-26T05:22:41.091Z,20.47
2018-11-26T05:25:11.338Z,23.37
2018-11-26T05:27:41.673Z,23.00
2018-11-26T05:30:16.429Z,22.23
2018-11-26T05:32:45.469Z,21.83
2018-11-26T05:35:15.027Z,22.67
2018-11-26T05:37:44.081Z,23.27
2018-11-26T05:40:14.327Z,21.83
2018-11-26T05:42:43.833Z,20.43
2018-11-26T05:45:15.175Z,23.00
2018-11-26T05:47:44.931Z,21.27
2018-11-26T05:50:14.909Z,21.97
2018-11-26T05:52:44.015Z,21.87
2018-11-26T05:55:16.457Z,22.77
2018-11-26T05:57:46.725Z,20.63
2018-11-26T06:00:21.908Z,21.20
2018-11-26T06:02:51.110Z,20.03
2018-11-26T06:05:20.158Z,23.23
2018-11-26T06:07:49.210Z,19.37
2018-11-26T06:10:18.255Z,20.30
2018-11-26T06:12:47.311Z,21.77
2018-11-26T06:15:16.565Z,21.07
2018-11-26T06:17:45.590Z,20.60
2018-11-26T06:20:14.739Z,20.23
2018-11-26T06:22:45.135Z,19.53
2018-11-26T06:25:17.071Z,19.70
2018-11-26T06:27:46.418Z,19.60
2018-11-26T06:30:16.626Z,18.37
2018-11-26T06:32:45.690Z,18.20
2018-11-26T06:35:18.075Z,20.00
2018-11-26T06:37:47.374Z,20.60
2018-11-26T06:40:16.478Z,21.57
2018-11-26T06:42:45.562Z,20.47
2018-11-26T06:45:22.957Z,21.20
2018-11-26T06:47:52.385Z,20.30
2018-11-26T06:50:21.928Z,18.90
2018-11-26T06:52:50.996Z,20.40
2018-11-26T06:55:21.094Z,20.77
2018-11-26T06:57:50.199Z,20.63
2018-11-26T07:00:20.344Z,22.20
2018-11-26T07:02:49.748Z,20.27
2018-11-26T07:05:21.121Z,20.33
2018-11-26T07:07:50.184Z,20.70
2018-11-26T07:10:20.237Z,20.07
2018-11-26T07:12:49.311Z,19.30
2018-11-26T07:15:19.950Z,19.80
2018-11-26T07:17:49.221Z,20.67
2018-11-26T07:20:19.743Z,18.97
2018-11-26T07:22:48.822Z,19.67
2018-11-26T07:25:19.491Z,19.47
2018-11-26T07:27:52.394Z,18.33
2018-11-26T07:30:22.848Z,17.90
2018-11-26T07:32:51.956Z,20.47
2018-11-26T07:35:21.512Z,17.77
2018-11-26T07:37:50.686Z,18.00
2018-11-26T07:40:20.918Z,18.07
2018-11-26T07:43:09.424Z,18.93
2018-11-26T07:45:39.005Z,17.87
2018-11-26T07:48:09.452Z,18.80
2018-11-26T07:50:38.586Z,19.17
2018-11-26T07:53:09.790Z,16.67
2018-11-26T07:55:39.789Z,18.17
2018-11-26T07:58:08.942Z,18.33
2018-11-26T08:00:38.098Z,18.33
2018-11-26T08:03:07.455Z,17.67
2018-11-26T08:05:36.534Z,17.30
2018-11-26T08:08:05.609Z,18.47
2018-11-26T08:10:35.829Z,18.17
2018-11-26T08:13:05.088Z,17.77
2018-11-26T08:15:34.276Z,18.47
2018-11-26T08:18:03.386Z,18.40
2018-11-26T08:20:32.584Z,17.97
2018-11-26T08:23:01.595Z,17.20
2018-11-26T08:25:30.636Z,16.33
2018-11-26T08:27:59.812Z,18.30
2018-11-26T08:30:28.875Z,16.77
2018-11-26T08:32:59.357Z,17.33
2018-11-26T08:35:28.773Z,18.47
2018-11-26T08:39:00.898Z,15.93
2018-11-26T08:41:35.402Z,16.20
2018-11-26T08:44:10.280Z,16.80
2018-11-26T08:46:44.626Z,16.93
2018-11-26T08:49:22.338Z,17.57
2018-11-26T08:51:51.479Z,16.97
2018-11-26T08:54:20.599Z,17.10
2018-11-26T08:56:49.742Z,16.57
2018-11-26T08:59:18.777Z,15.67
2018-11-26T09:01:51.478Z,16.77
2018-11-26T09:04:23.669Z,16.03
2018-11-26T09:06:52.762Z,15.30
2018-11-26T09:09:21.873Z,15.63
2018-11-26T09:11:50.968Z,16.00
2018-11-26T09:14:20.242Z,16.50
2018-11-26T09:16:49.396Z,16.90
2018-11-26T09:19:18.560Z,17.40
2018-11-26T09:21:47.814Z,16.93
2018-11-26T09:24:17.593Z,14.63
2018-11-26T09:26:46.613Z,15.90
2018-11-26T09:29:15.690Z,15.30
2018-11-26T09:31:45.124Z,14.73
2018-11-26T09:34:14.168Z,14.97
2018-11-26T09:36:43.265Z,14.40
2018-11-26T09:39:12.391Z,16.53
2018-11-26T09:41:41.587Z,15.40
2018-11-26T09:44:10.651Z,14.90
2018-11-26T09:46:39.715Z,14.63
2018-11-26T09:49:08.944Z,14.47
2018-11-26T09:51:42.173Z,15.40
2018-11-26T09:54:07.309Z,13.90
2018-11-26T09:56:36.534Z,15.33
2018-11-26T09:59:06.144Z,15.23
2018-11-26T10:01:35.209Z,14.83
2018-11-26T10:04:04.642Z,14.67
2018-11-26T10:06:33.713Z,16.33
2018-11-26T10:09:02.826Z,14.93
2018-11-26T10:11:31.926Z,16.00
2018-11-26T10:14:00.955Z,15.53
2018-11-26T10:16:30.044Z,15.27
2018-11-26T10:18:59.151Z,15.70
2018-11-26T10:21:28.193Z,15.70
2018-11-26T10:23:57.332Z,15.87
2018-11-26T10:26:26.613Z,14.63
2018-11-26T10:28:55.652Z,13.97
2018-11-26T10:31:24.745Z,15.17
2018-11-26T10:33:53.810Z,15.33
2018-11-26T10:36:22.845Z,14.50
2018-11-26T10:38:52.042Z,15.13
2018-11-26T10:41:21.096Z,15.37
2018-11-26T10:43:50.246Z,15.27
2018-11-26T10:46:19.291Z,14.70
2018-11-26T10:48:48.410Z,14.13
2018-11-26T10:51:17.460Z,14.27
2018-11-26T10:53:46.852Z,13.13
2018-11-26T10:56:15.934Z,14.03
2018-11-26T10:58:45.022Z,14.37
2018-11-26T11:01:19.372Z,15.33
2018-11-26T11:03:48.535Z,14.00
2018-11-26T11:06:17.639Z,14.97
2018-11-26T11:08:47.060Z,13.97
2018-11-26T11:11:16.525Z,13.87
2018-11-26T11:13:45.764Z,14.70
2018-11-26T11:16:14.954Z,14.37
2018-11-26T11:18:44.190Z,14.63
2018-11-26T11:21:13.453Z,13.80
2018-11-26T11:23:42.535Z,12.63
2018-11-26T11:26:11.821Z,14.13
2018-11-26T11:28:41.170Z,13.77
2018-11-26T11:31:10.297Z,14.63
2018-11-26T11:33:39.490Z,15.27
2018-11-26T11:36:08.677Z,14.43
2018-11-26T11:38:37.733Z,14.03
2018-11-26T11:41:07.269Z,15.47
2018-11-26T11:43:36.464Z,14.83
2018-11-26T11:46:06.696Z,13.97
2018-11-26T11:48:35.811Z,14.93
2018-11-26T11:51:04.993Z,15.43
2018-11-26T11:53:34.066Z,15.67
2018-11-26T11:56:03.116Z,16.17
2018-11-26T11:58:32.915Z,16.73
2018-11-26T12:01:01.996Z,16.50
2018-11-26T12:03:31.047Z,18.13
2018-11-26T12:06:00.100Z,18.37
2018-11-26T12:08:29.221Z,18.97
2018-11-26T12:10:58.955Z,18.30
2018-11-26T12:13:28.003Z,17.33
2018-11-26T12:15:57.128Z,18.30
2018-11-26T12:18:26.188Z,18.37
2018-11-26T12:20:55.382Z,18.00
2018-11-26T12:23:24.542Z,19.27
2018-11-26T12:25:53.784Z,17.97
2018-11-26T12:28:22.914Z,19.33
2018-11-26T12:30:52.159Z,18.17
2018-11-26T12:33:21.268Z,20.07
2018-11-26T12:45:56.012Z,24.13
2018-11-26T12:48:25.103Z,23.57
2018-11-26T12:50:55.126Z,24.50
2018-11-26T12:53:24.385Z,23.73
2018-11-26T12:55:53.495Z,24.73
2018-11-26T12:58:22.805Z,24.13
2018-11-26T13:00:52.284Z,25.27
2018-11-26T13:03:21.759Z,22.77
2018-11-26T13:05:50.811Z,23.83
2018-11-26T13:08:19.895Z,26.27
2018-11-26T13:10:48.970Z,25.13
2018-11-26T13:13:18.051Z,25.90
2018-11-26T13:15:47.137Z,25.20
2018-11-26T13:18:16.392Z,25.73
2018-11-26T13:20:45.710Z,27.70
2018-11-26T13:23:14.764Z,27.23
2018-11-26T13:25:43.793Z,26.10
2018-11-26T13:28:13.129Z,27.90
2018-11-26T13:30:44.345Z,27.00
2018-11-26T13:33:15.930Z,26.90
2018-11-26T13:35:46.111Z,26.70
2018-11-26T13:38:15.346Z,27.70
2018-11-26T13:40:44.528Z,27.13
2018-11-26T13:43:15.349Z,29.43
2018-11-26T13:45:49.676Z,28.87
2018-11-26T13:48:19.612Z,29.30
2018-11-26T13:50:54.211Z,28.37
2018-11-26T13:53:23.325Z,26.33
2018-11-26T13:55:52.481Z,29.17
2018-11-26T13:58:21.599Z,29.50
2018-11-26T14:00:51.692Z,27.43
2018-11-26T14:03:20.951Z,27.27
2018-11-26T14:05:50.291Z,30.33
2018-11-26T14:08:19.437Z,29.73
2018-11-26T14:10:48.500Z,29.60
2018-11-26T14:13:17.888Z,30.63
2018-11-26T14:15:47.813Z,29.83
2018-11-26T14:18:17.130Z,30.20
2018-11-26T14:20:46.177Z,28.60
2018-11-26T14:23:15.309Z,29.93
2018-11-26T14:25:44.360Z,27.63
2018-11-26T14:28:13.590Z,29.60
2018-11-26T14:30:42.831Z,29.47
2018-11-26T14:33:12.210Z,29.67
2018-11-26T14:35:41.253Z,29.13
2018-11-26T14:38:10.604Z,28.63
2018-11-26T14:40:43.591Z,29.30
2018-11-26T14:43:12.660Z,29.73
2018-11-26T14:45:41.727Z,30.83
2018-11-26T14:48:11.079Z,29.80
2018-11-26T14:50:40.125Z,30.60
2018-11-26T14:53:11.365Z,28.23
2018-11-26T14:55:40.745Z,28.47
2018-11-26T14:58:09.801Z,26.63
2018-11-26T15:00:38.980Z,26.47
2018-11-26T15:03:08.454Z,25.17
2018-11-26T15:05:37.483Z,25.83
2018-11-26T15:08:06.579Z,29.93
2018-11-26T15:10:35.607Z,26.43
2018-11-26T15:13:05.164Z,26.23
2018-11-26T15:15:34.279Z,29.43
2018-11-26T15:18:03.502Z,26.73
2018-11-26T15:20:32.546Z,28.10
2018-11-26T15:23:02.116Z,26.60
2018-11-26T15:25:32.601Z,27.07
2018-11-26T15:28:04.990Z,27.83
2018-11-26T15:30:34.158Z,28.53
2018-11-26T15:33:03.328Z,27.53
2018-11-26T15:35:32.367Z,26.53
2018-11-26T15:38:01.399Z,26.67
2018-11-26T15:40:30.505Z,25.90
2018-11-26T15:42:59.675Z,27.47
2018-11-26T15:45:29.570Z,28.37
2018-11-26T15:48:00.861Z,26.33
2018-11-26T15:50:29.890Z,26.53
2018-11-26T15:52:59.223Z,26.60
2018-11-26T15:55:28.322Z,24.83
2018-11-26T15:57:57.605Z,26.80
2018-11-26T16:00:27.121Z,28.30
2018-11-26T16:02:56.260Z,26.13
2018-11-26T16:05:28.204Z,27.97
2018-11-26T16:07:58.998Z,31.53
2018-11-26T16:10:28.072Z,29.80
2018-11-26T16:12:59.120Z,30.20
2018-11-26T16:15:32.076Z,30.57
2018-11-26T16:18:02.229Z,30.07
2018-11-26T16:20:31.277Z,27.50
2018-11-26T16:23:00.661Z,28.47
2018-11-26T16:25:29.739Z,28.97
2018-11-26T16:27:59.409Z,29.83
2018-11-26T16:30:28.583Z,26.00
2018-11-26T16:32:58.634Z,28.67
2018-11-26T16:35:32.241Z,29.43
2018-11-26T16:38:01.614Z,26.67
2018-11-26T16:40:30.775Z,29.73
2018-11-26T16:42:59.829Z,30.77
2018-11-26T16:45:29.434Z,29.40
2018-11-26T16:47:59.066Z,32.03
2018-11-26T16:50:29.603Z,32.03
2018-11-26T16:53:05.058Z,31.10
2018-11-26T16:55:34.161Z,31.87
2018-11-26T16:58:03.288Z,31.43
2018-11-26T17:00:32.468Z,32.93
2018-11-26T17:03:02.224Z,32.83
2018-11-26T17:05:38.896Z,33.87
2018-11-26T17:08:13.458Z,33.87
2018-11-26T17:10:42.960Z,33.47
2018-11-26T17:13:13.358Z,34.27
2018-11-26T17:15:42.794Z,33.77
2018-11-26T17:18:11.964Z,33.70
2018-11-26T17:20:41.990Z,34.07
2018-11-26T17:23:11.058Z,34.67
2018-11-26T17:25:40.275Z,35.53
2018-11-26T17:28:09.474Z,35.03
2018-11-26T17:30:40.056Z,36.23
2018-11-26T17:33:10.617Z,35.10
2018-11-26T17:35:39.705Z,35.07
2018-11-26T17:38:09.047Z,38.10
2018-11-26T17:40:39.179Z,37.67
2018-11-26T17:43:10.059Z,38.10
2018-11-26T17:45:39.272Z,37.10
2018-11-26T17:48:08.422Z,37.67
2018-11-26T17:50:39.503Z,36.73
2018-11-26T17:53:14.861Z,37.57
2018-11-26T17:55:54.095Z,39.50
2018-11-26T17:58:27.356Z,38.13
2018-11-26T18:01:05.394Z,38.33
2018-11-26T18:03:34.474Z,37.70
2018-11-26T18:06:03.589Z,36.30
2018-11-26T18:08:32.687Z,37.33
2018-11-26T18:11:01.752Z,37.93
2018-11-26T18:13:30.934Z,38.93
2018-11-26T18:15:59.999Z,38.37
2018-11-26T18:18:29.185Z,37.57
2018-11-26T18:20:58.327Z,37.13
2018-11-26T18:23:27.473Z,35.93
2018-11-26T18:25:57.055Z,33.13
2018-11-26T18:28:26.247Z,36.93
2018-11-26T18:30:55.633Z,36.77
2018-11-26T18:33:24.722Z,35.17
2018-11-26T18:35:54.267Z,33.93
2018-11-26T18:38:24.352Z,35.13
2018-11-26T18:40:53.392Z,33.50
2018-11-26T18:43:22.445Z,31.30
2018-11-26T18:45:51.509Z,32.93
2018-11-26T18:48:20.547Z,30.03
2018-11-26T18:50:49.611Z,31.03
2018-11-26T18:53:18.756Z,31.50
2018-11-26T18:55:47.998Z,33.37
2018-11-26T18:58:17.023Z,30.87
2018-11-26T19:00:52.069Z,30.47
2018-11-26T19:03:22.253Z,30.03
2018-11-26T19:05:52.976Z,29.47
2018-11-26T19:08:22.101Z,30.40
2018-11-26T19:10:54.328Z,29.47
2018-11-26T19:13:27.501Z,27.43
2018-11-26T19:16:04.153Z,30.67
2018-11-26T19:18:33.329Z,28.63
2018-11-26T19:21:02.400Z,28.93
2018-11-26T19:23:31.533Z,29.80
2018-11-26T19:26:00.599Z,29.50
2018-11-26T19:28:29.668Z,29.00
2018-11-26T19:30:58.965Z,28.43
2018-11-26T19:33:28.174Z,29.63
2018-11-26T19:35:57.382Z,28.17
2018-11-26T19:38:26.547Z,30.20
2018-11-26T19:40:55.782Z,28.30
2018-11-26T19:43:24.840Z,27.13
2018-11-26T19:45:53.902Z,27.17
2018-11-26T19:48:23.138Z,28.27
2018-11-26T19:50:52.205Z,27.00
2018-11-26T19:53:21.250Z,26.87
2018-11-26T19:55:51.555Z,27.00
2018-11-26T19:58:20.373Z,25.53
2018-11-26T20:00:49.575Z,27.27
2018-11-26T20:03:22.302Z,26.07
2018-11-26T20:05:59.442Z,28.17
2018-11-26T20:08:28.506Z,28.23
2018-11-26T20:10:57.536Z,28.17
2018-11-26T20:13:26.905Z,25.10
2018-11-26T20:15:55.969Z,25.23
2018-11-26T20:18:28.458Z,25.10
2018-11-26T20:20:54.394Z,26.13
2018-11-26T20:23:23.559Z,27.20
2018-11-26T20:25:52.778Z,24.57
2018-11-26T20:28:21.835Z,25.47
2018-11-26T20:30:50.926Z,26.30
2018-11-26T20:33:20.593Z,25.90
2018-11-26T20:35:49.772Z,26.63
2018-11-26T20:38:19.007Z,26.40
2018-11-26T20:40:48.156Z,25.17
2018-11-26T20:43:17.464Z,26.90
2018-11-26T20:45:48.320Z,26.30
2018-11-26T20:48:17.936Z,26.20
2018-11-26T20:50:50.890Z,25.67
2018-11-26T20:53:23.150Z,27.47
2018-11-26T20:55:52.248Z,26.43
2018-11-26T20:58:22.632Z,26.03
2018-11-26T21:00:52.004Z,25.87
2018-11-26T21:03:21.191Z,26.10
2018-11-26T21:05:50.593Z,25.83
2018-11-26T21:08:19.634Z,25.97
2018-11-26T21:10:48.714Z,26.43
2018-11-26T21:13:17.775Z,26.63
2018-11-26T21:15:48.074Z,24.77
2018-11-26T21:18:17.213Z,26.63
2018-11-26T21:20:47.657Z,24.27
2018-11-26T21:23:22.223Z,24.37
2018-11-26T21:25:51.463Z,25.83
2018-11-26T21:28:20.654Z,25.87
2018-11-26T21:30:52.100Z,26.73
2018-11-26T21:33:18.777Z,25.07
2018-11-26T21:35:47.948Z,25.20
2018-11-26T21:38:17.045Z,24.60
2018-11-26T21:40:46.222Z,25.27
2018-11-26T21:43:15.322Z,27.17
2018-11-26T21:45:59.971Z,23.47
2018-11-26T21:48:29.030Z,27.13
2018-11-26T21:50:58.267Z,25.90
2018-11-26T21:53:27.301Z,25.33
2018-11-26T21:55:56.377Z,23.13
2018-11-26T21:58:25.703Z,24.63
2018-11-26T22:00:56.706Z,23.80
2018-11-26T22:03:30.394Z,25.47
2018-11-26T22:05:54.657Z,22.97
2018-11-26T22:08:23.739Z,24.00
2018-11-26T22:10:52.839Z,23.53
2018-11-26T22:13:22.258Z,24.10
2018-11-26T22:15:51.437Z,25.57
2018-11-26T22:18:21.249Z,25.60
2018-11-26T22:20:50.299Z,25.83
2018-11-26T22:23:19.392Z,25.53
2018-11-26T22:25:48.635Z,24.80
2018-11-26T22:28:17.672Z,24.67
2018-11-26T22:30:46.749Z,24.80
2018-11-26T22:33:17.421Z,25.13
2018-11-26T22:35:49.234Z,24.20
2018-11-26T22:38:18.698Z,23.37
2018-11-26T22:40:47.935Z,24.23
2018-11-26T22:43:17.008Z,25.53
2018-11-26T22:45:46.776Z,25.33
2018-11-26T22:48:15.981Z,24.30
2018-11-26T22:50:45.950Z,24.60
2018-11-26T22:53:15.085Z,22.97
2018-11-26T22:55:44.371Z,25.40
2018-11-26T22:58:14.513Z,24.53
2018-11-26T23:00:53.510Z,23.80
2018-11-26T23:03:24.485Z,23.73
2018-11-26T23:05:53.667Z,24.80
2018-11-26T23:08:23.490Z,22.63
2018-11-26T23:10:52.953Z,24.67
2018-11-26T23:13:23.584Z,24.83
2018-11-26T23:15:52.746Z,24.37
2018-11-26T23:18:21.812Z,23.47
2018-11-26T23:20:51.112Z,23.53
2018-11-26T23:23:20.190Z,23.43
2018-11-26T23:25:49.226Z,24.03
2018-11-26T23:28:18.310Z,24.27
2018-11-26T23:30:47.630Z,23.93
2018-11-26T23:33:16.682Z,22.87
2018-11-26T23:35:45.726Z,23.33
2018-11-26T23:38:14.947Z,22.20
2018-11-26T23:40:44.096Z,25.50
2018-11-26T23:43:13.349Z,22.60
2018-11-26T23:45:42.941Z,23.93
2018-11-26T23:48:12.039Z,23.30
2018-11-26T23:50:41.075Z,22.73
2018-11-26T23:53:10.186Z,22.73
2018-11-26T23:55:39.944Z,23.13
2018-11-26T23:58:09.016Z,22.90
